sensor_id;sensor_type;location;lat;lon;timestamp;temperature;humidity
62259;DHT22;48241;48.824;10.102;2022-12-17T00:01:52;-2.90;93.20
62259;DHT22;48241;48.824;10.102;2022-12-17T00:04:39;-2.80;92.70
62259;DHT22;48241;48.824;10.102;2022-12-17T00:07:27;-2.90;93.00
62259;DHT22;48241;48.824;10.102;2022-12-17T00:10:11;-2.60;91.90
62259;DHT22;48241;48.824;10.102;2022-12-17T00:13:04;-2.60;91.60
62259;DHT22;48241;48.824;10.102;2022-12-17T00:15:59;-2.60;90.40
62259;DHT22;48241;48.824;10.102;2022-12-17T00:18:44;-2.60;90.60
62259;DHT22;48241;48.824;10.102;2022-12-17T00:21:30;-2.90;90.90
62259;DHT22;48241;48.824;10.102;2022-12-17T00:24:16;-2.90;91.10
62259;DHT22;48241;48.824;10.102;2022-12-17T00:27:01;-3.10;92.10
62259;DHT22;48241;48.824;10.102;2022-12-17T00:29:46;-2.90;92.20
62259;DHT22;48241;48.824;10.102;2022-12-17T00:32:50;-2.50;91.40
62259;DHT22;48241;48.824;10.102;2022-12-17T00:35:42;-3.00;91.60
62259;DHT22;48241;48.824;10.102;2022-12-17T00:38:30;-2.70;92.10
62259;DHT22;48241;48.824;10.102;2022-12-17T00:41:18;-2.50;91.90
62259;DHT22;48241;48.824;10.102;2022-12-17T00:44:06;-2.40;92.40
62259;DHT22;48241;48.824;10.102;2022-12-17T00:46:51;-2.20;92.10
62259;DHT22;48241;48.824;10.102;2022-12-17T00:49:39;-2.00;91.50
62259;DHT22;48241;48.824;10.102;2022-12-17T00:52:46;-1.90;91.20
62259;DHT22;48241;48.824;10.102;2022-12-17T00:55:52;-1.70;90.90
62259;DHT22;48241;48.824;10.102;2022-12-17T00:59:00;-1.60;91.00
62259;DHT22;48241;48.824;10.102;2022-12-17T01:01:57;-1.40;90.40
62259;DHT22;48241;48.824;10.102;2022-12-17T01:04:46;-1.50;90.10
62259;DHT22;48241;48.824;10.102;2022-12-17T01:07:30;-1.40;90.10
62259;DHT22;48241;48.824;10.102;2022-12-17T01:10:31;-1.20;89.20
62259;DHT22;48241;48.824;10.102;2022-12-17T01:13:16;-1.20;87.70
62259;DHT22;48241;48.824;10.102;2022-12-17T01:16:07;-1.10;87.30
62259;DHT22;48241;48.824;10.102;2022-12-17T01:18:52;-1.30;87.70
62259;DHT22;48241;48.824;10.102;2022-12-17T01:21:36;-1.20;88.00
62259;DHT22;48241;48.824;10.102;2022-12-17T01:24:21;-1.50;88.40
62259;DHT22;48241;48.824;10.102;2022-12-17T01:27:06;-1.60;89.90
62259;DHT22;48241;48.824;10.102;2022-12-17T01:29:50;-1.50;88.90
62259;DHT22;48241;48.824;10.102;2022-12-17T01:32:35;-1.50;89.40
62259;DHT22;48241;48.824;10.102;2022-12-17T01:35:19;-1.40;88.90
62259;DHT22;48241;48.824;10.102;2022-12-17T01:38:15;-1.40;88.70
62259;DHT22;48241;48.824;10.102;2022-12-17T01:41:01;-1.30;89.60
62259;DHT22;48241;48.824;10.102;2022-12-17T01:43:45;-1.40;89.00
62259;DHT22;48241;48.824;10.102;2022-12-17T01:46:34;-1.30;88.60
62259;DHT22;48241;48.824;10.102;2022-12-17T01:49:32;-1.10;88.60
62259;DHT22;48241;48.824;10.102;2022-12-17T01:52:17;-1.00;87.90
62259;DHT22;48241;48.824;10.102;2022-12-17T01:55:03;-1.10;87.70
62259;DHT22;48241;48.824;10.102;2022-12-17T01:57:47;-0.90;86.50
62259;DHT22;48241;48.824;10.102;2022-12-17T02:00:32;-0.90;86.70
62259;DHT22;48241;48.824;10.102;2022-12-17T02:03:18;-1.00;86.40
62259;DHT22;48241;48.824;10.102;2022-12-17T02:06:17;-0.90;86.40
62259;DHT22;48241;48.824;10.102;2022-12-17T02:09:09;-1.20;86.30
62259;DHT22;48241;48.824;10.102;2022-12-17T02:12:07;-1.20;86.50
62259;DHT22;48241;48.824;10.102;2022-12-17T02:17:54;-1.10;86.50
62259;DHT22;48241;48.824;10.102;2022-12-17T02:20:41;-1.00;86.60
62259;DHT22;48241;48.824;10.102;2022-12-17T02:29:31;-1.10;86.30
62259;DHT22;48241;48.824;10.102;2022-12-17T02:32:17;-1.00;86.20
62259;DHT22;48241;48.824;10.102;2022-12-17T02:35:09;-1.00;86.20
62259;DHT22;48241;48.824;10.102;2022-12-17T02:37:56;-0.90;86.80
62259;DHT22;48241;48.824;10.102;2022-12-17T02:40:41;-1.00;87.00
62259;DHT22;48241;48.824;10.102;2022-12-17T02:43:29;-1.00;86.10
62259;DHT22;48241;48.824;10.102;2022-12-17T02:46:14;-1.10;87.20
62259;DHT22;48241;48.824;10.102;2022-12-17T02:48:58;-1.30;87.30
62259;DHT22;48241;48.824;10.102;2022-12-17T02:51:43;-1.20;87.10
62259;DHT22;48241;48.824;10.102;2022-12-17T02:54:31;-1.20;86.60
62259;DHT22;48241;48.824;10.102;2022-12-17T02:57:17;-1.10;86.30
62259;DHT22;48241;48.824;10.102;2022-12-17T03:00:05;-1.00;86.30
62259;DHT22;48241;48.824;10.102;2022-12-17T03:02:49;-1.10;86.00
62259;DHT22;48241;48.824;10.102;2022-12-17T03:05:33;-1.00;85.40
62259;DHT22;48241;48.824;10.102;2022-12-17T03:08:17;-1.00;86.10
62259;DHT22;48241;48.824;10.102;2022-12-17T03:11:19;-1.10;85.80
62259;DHT22;48241;48.824;10.102;2022-12-17T03:14:03;-1.10;86.00
62259;DHT22;48241;48.824;10.102;2022-12-17T03:16:47;-1.10;85.10
62259;DHT22;48241;48.824;10.102;2022-12-17T03:19:32;-1.20;84.60
62259;DHT22;48241;48.824;10.102;2022-12-17T03:22:16;-1.30;85.60
62259;DHT22;48241;48.824;10.102;2022-12-17T03:25:00;-1.20;85.40
62259;DHT22;48241;48.824;10.102;2022-12-17T03:27:44;-1.20;86.50
62259;DHT22;48241;48.824;10.102;2022-12-17T03:30:28;-1.20;86.30
62259;DHT22;48241;48.824;10.102;2022-12-17T03:33:13;-1.10;85.50
62259;DHT22;48241;48.824;10.102;2022-12-17T03:35:57;-1.10;85.30
62259;DHT22;48241;48.824;10.102;2022-12-17T03:38:41;-1.00;84.20
62259;DHT22;48241;48.824;10.102;2022-12-17T03:41:25;-1.10;83.90
62259;DHT22;48241;48.824;10.102;2022-12-17T03:44:09;-1.20;84.30
62259;DHT22;48241;48.824;10.102;2022-12-17T03:46:53;-1.10;84.60
62259;DHT22;48241;48.824;10.102;2022-12-17T03:49:38;-1.20;84.40
62259;DHT22;48241;48.824;10.102;2022-12-17T03:52:22;-1.10;83.90
62259;DHT22;48241;48.824;10.102;2022-12-17T03:55:06;-1.10;83.20
62259;DHT22;48241;48.824;10.102;2022-12-17T03:57:50;-1.10;83.30
62259;DHT22;48241;48.824;10.102;2022-12-17T04:00:35;-1.20;83.70
62259;DHT22;48241;48.824;10.102;2022-12-17T04:03:19;-1.30;83.70
62259;DHT22;48241;48.824;10.102;2022-12-17T04:06:03;-1.40;84.80
62259;DHT22;48241;48.824;10.102;2022-12-17T04:08:47;-1.30;83.80
62259;DHT22;48241;48.824;10.102;2022-12-17T04:11:31;-1.10;83.40
62259;DHT22;48241;48.824;10.102;2022-12-17T04:14:16;-1.20;83.00
62259;DHT22;48241;48.824;10.102;2022-12-17T04:17:00;-1.20;83.10
62259;DHT22;48241;48.824;10.102;2022-12-17T04:19:44;-1.60;84.10
62259;DHT22;48241;48.824;10.102;2022-12-17T04:22:28;-1.60;85.30
62259;DHT22;48241;48.824;10.102;2022-12-17T04:25:12;-1.40;84.50
62259;DHT22;48241;48.824;10.102;2022-12-17T04:27:57;-1.30;84.20
62259;DHT22;48241;48.824;10.102;2022-12-17T04:30:41;-1.20;83.30
62259;DHT22;48241;48.824;10.102;2022-12-17T04:33:25;-1.10;82.30
62259;DHT22;48241;48.824;10.102;2022-12-17T04:36:09;-1.30;82.70
62259;DHT22;48241;48.824;10.102;2022-12-17T04:38:53;-1.40;83.00
62259;DHT22;48241;48.824;10.102;2022-12-17T04:41:37;-1.50;83.40
62259;DHT22;48241;48.824;10.102;2022-12-17T04:44:22;-1.50;84.10
62259;DHT22;48241;48.824;10.102;2022-12-17T04:47:06;-1.50;83.30
62259;DHT22;48241;48.824;10.102;2022-12-17T04:49:50;-1.50;82.40
62259;DHT22;48241;48.824;10.102;2022-12-17T04:52:34;-1.60;83.10
62259;DHT22;48241;48.824;10.102;2022-12-17T04:55:19;-1.50;82.70
62259;DHT22;48241;48.824;10.102;2022-12-17T04:58:04;-1.40;82.40
62259;DHT22;48241;48.824;10.102;2022-12-17T05:00:52;-1.80;83.90
62259;DHT22;48241;48.824;10.102;2022-12-17T05:03:37;-2.00;83.80
62259;DHT22;48241;48.824;10.102;2022-12-17T05:06:21;-1.80;82.70
62259;DHT22;48241;48.824;10.102;2022-12-17T05:09:05;-1.90;82.40
62259;DHT22;48241;48.824;10.102;2022-12-17T05:11:49;-2.00;82.80
62259;DHT22;48241;48.824;10.102;2022-12-17T05:14:33;-1.90;82.90
62259;DHT22;48241;48.824;10.102;2022-12-17T05:17:17;-1.90;82.70
62259;DHT22;48241;48.824;10.102;2022-12-17T05:20:02;-2.10;83.90
62259;DHT22;48241;48.824;10.102;2022-12-17T05:22:47;-2.20;84.70
62259;DHT22;48241;48.824;10.102;2022-12-17T05:25:31;-2.00;83.70
62259;DHT22;48241;48.824;10.102;2022-12-17T05:28:15;-2.10;83.80
62259;DHT22;48241;48.824;10.102;2022-12-17T05:31:00;-2.10;83.50
62259;DHT22;48241;48.824;10.102;2022-12-17T05:33:44;-2.10;83.20
62259;DHT22;48241;48.824;10.102;2022-12-17T05:36:28;-2.30;84.60
62259;DHT22;48241;48.824;10.102;2022-12-17T05:39:12;-2.20;84.40
62259;DHT22;48241;48.824;10.102;2022-12-17T05:41:56;-2.10;83.60
62259;DHT22;48241;48.824;10.102;2022-12-17T05:44:40;-2.00;82.80
62259;DHT22;48241;48.824;10.102;2022-12-17T05:47:24;-2.00;82.30
62259;DHT22;48241;48.824;10.102;2022-12-17T05:50:09;-2.00;81.20
62259;DHT22;48241;48.824;10.102;2022-12-17T05:52:53;-2.10;79.20
62259;DHT22;48241;48.824;10.102;2022-12-17T05:55:37;-2.10;78.20
62259;DHT22;48241;48.824;10.102;2022-12-17T05:58:21;-2.10;75.60
62259;DHT22;48241;48.824;10.102;2022-12-17T06:01:05;-2.50;75.30
62259;DHT22;48241;48.824;10.102;2022-12-17T06:03:50;-2.80;73.80
62259;DHT22;48241;48.824;10.102;2022-12-17T06:06:35;-2.90;75.80
62259;DHT22;48241;48.824;10.102;2022-12-17T06:09:19;-3.20;76.90
62259;DHT22;48241;48.824;10.102;2022-12-17T06:12:03;-3.20;76.30
62259;DHT22;48241;48.824;10.102;2022-12-17T06:14:47;-3.40;76.80
62259;DHT22;48241;48.824;10.102;2022-12-17T06:17:31;-3.60;77.50
62259;DHT22;48241;48.824;10.102;2022-12-17T06:20:16;-3.60;77.90
62259;DHT22;48241;48.824;10.102;2022-12-17T06:23:05;-3.60;77.50
62259;DHT22;48241;48.824;10.102;2022-12-17T06:25:54;-3.80;77.80
62259;DHT22;48241;48.824;10.102;2022-12-17T06:28:40;-3.80;76.70
62259;DHT22;48241;48.824;10.102;2022-12-17T06:31:24;-4.00;76.90
62259;DHT22;48241;48.824;10.102;2022-12-17T06:34:10;-3.90;76.70
62259;DHT22;48241;48.824;10.102;2022-12-17T06:36:54;-3.90;76.50
62259;DHT22;48241;48.824;10.102;2022-12-17T06:39:38;-3.90;76.20
62259;DHT22;48241;48.824;10.102;2022-12-17T06:42:23;-3.90;75.60
62259;DHT22;48241;48.824;10.102;2022-12-17T06:45:07;-4.00;77.00
62259;DHT22;48241;48.824;10.102;2022-12-17T06:47:59;-4.50;77.20
62259;DHT22;48241;48.824;10.102;2022-12-17T06:50:44;-4.40;78.10
62259;DHT22;48241;48.824;10.102;2022-12-17T06:53:28;-4.30;78.20
62259;DHT22;48241;48.824;10.102;2022-12-17T06:56:14;-4.40;78.50
62259;DHT22;48241;48.824;10.102;2022-12-17T07:04:10;-4.80;78.50
